createdAt,value
2023-02-16T00:00:57.601Z,100.00
2023-02-16T00:03:38.907Z,100.00
2023-02-16T00:06:07.469Z,100.00
2023-02-16T00:08:35.748Z,100.00
2023-02-16T00:11:22.967Z,99.94
2023-02-16T00:13:53.317Z,99.60
2023-02-16T00:16:23.005Z,99.35
2023-02-16T00:18:52.198Z,99.97
2023-02-16T00:21:20.270Z,100.00
2023-02-16T00:23:51.109Z,100.00
2023-02-16T00:26:21.201Z,100.00
2023-02-16T00:28:54.215Z,100.00
2023-02-16T00:31:24.202Z,100.00
2023-02-16T00:33:53.026Z,100.00
2023-02-16T00:36:24.168Z,100.00
2023-02-16T00:38:52.455Z,100.00
2023-02-16T00:41:42.024Z,99.96
2023-02-16T00:44:14.907Z,100.00
2023-02-16T00:46:44.105Z,100.00
2023-02-16T00:49:16.589Z,100.00
2023-02-16T00:51:44.656Z,100.00
2023-02-16T00:54:13.341Z,100.00
2023-02-16T00:56:43.444Z,100.00
2023-02-16T00:59:16.856Z,100.00
2023-02-16T01:01:45.079Z,100.00
2023-02-16T01:04:18.749Z,100.00
2023-02-16T01:07:05.442Z,100.00
2023-02-16T01:09:52.558Z,100.00
2023-02-16T01:12:22.067Z,100.00
2023-02-16T01:14:54.301Z,100.00
2023-02-16T01:17:24.662Z,100.00
2023-02-16T01:19:55.084Z,100.00
2023-02-16T01:22:24.079Z,100.00
2023-02-16T01:24:52.566Z,100.00
2023-02-16T01:27:20.531Z,100.00
2023-02-16T01:29:48.502Z,100.00
2023-02-16T01:32:17.495Z,100.00
2023-02-16T01:34:45.568Z,100.00
2023-02-16T01:37:16.626Z,100.00
2023-02-16T01:39:45.818Z,100.00
2023-02-16T01:42:16.138Z,100.00
2023-02-16T01:44:47.173Z,100.00
2023-02-16T01:47:30.194Z,100.00
2023-02-16T01:50:00.793Z,100.00
2023-02-16T01:52:34.566Z,100.00
2023-02-16T01:55:08.242Z,100.00
2023-02-16T01:57:48.697Z,100.00
2023-02-16T02:00:17.793Z,100.00
2023-02-16T02:03:16.494Z,100.00
2023-02-16T02:05:45.070Z,100.00
2023-02-16T02:08:31.880Z,100.00
2023-02-16T02:11:00.812Z,100.00
2023-02-16T02:13:36.251Z,100.00
2023-02-16T02:16:05.572Z,100.00
2023-02-16T02:18:33.809Z,100.00
2023-02-16T02:21:27.671Z,100.00
2023-02-16T02:24:19.907Z,100.00
2023-02-16T02:27:07.441Z,100.00
2023-02-16T02:29:58.844Z,100.00
2023-02-16T02:32:51.640Z,100.00
2023-02-16T02:35:30.243Z,100.00
2023-02-16T02:38:05.774Z,100.00
2023-02-16T02:40:55.179Z,100.00
2023-02-16T02:43:24.341Z,100.00
2023-02-16T02:45:56.619Z,100.00
2023-02-16T02:48:30.543Z,100.00
2023-02-16T02:51:20.198Z,100.00
2023-02-16T02:54:11.722Z,100.00
2023-02-16T02:57:02.324Z,100.00
2023-02-16T02:59:51.183Z,100.00
2023-02-16T03:02:23.388Z,100.00
2023-02-16T03:04:53.984Z,100.00
2023-02-16T03:07:43.173Z,100.00
2023-02-16T03:10:29.552Z,100.00
2023-02-16T03:12:58.043Z,100.00
2023-02-16T03:15:27.844Z,100.00
2023-02-16T03:18:15.787Z,100.00
2023-02-16T03:21:05.248Z,100.00
2023-02-16T03:23:52.374Z,100.00
2023-02-16T03:26:39.488Z,100.00
2023-02-16T03:29:24.887Z,100.00
2023-02-16T03:31:54.195Z,100.00
2023-02-16T03:34:22.854Z,100.00
2023-02-16T03:36:52.767Z,100.00
2023-02-16T03:39:20.940Z,100.00
2023-02-16T03:41:50.687Z,100.00
2023-02-16T03:44:19.445Z,100.00
2023-02-16T03:46:49.691Z,100.00
2023-02-16T03:49:18.145Z,100.00
2023-02-16T03:51:46.727Z,100.00
2023-02-16T03:54:16.032Z,100.00
2023-02-16T03:56:44.309Z,100.00
2023-02-16T03:59:12.449Z,100.00
2023-02-16T04:01:40.553Z,100.00
2023-02-16T04:04:08.859Z,100.00
2023-02-16T04:06:37.212Z,100.00
2023-02-16T04:09:05.286Z,100.00
2023-02-16T04:11:51.906Z,100.00
2023-02-16T04:14:20.179Z,100.00
2023-02-16T04:16:48.469Z,100.00
2023-02-16T04:19:16.622Z,100.00
2023-02-16T04:21:44.812Z,100.00
2023-02-16T04:24:12.747Z,100.00
2023-02-16T04:26:40.836Z,100.00
2023-02-16T04:29:08.913Z,100.00
2023-02-16T04:31:37.069Z,100.00
2023-02-16T04:34:05.298Z,100.00
2023-02-16T04:36:34.652Z,100.00
2023-02-16T04:39:02.844Z,100.00
2023-02-16T04:41:31.107Z,100.00
2023-02-16T04:43:59.176Z,100.00
2023-02-16T04:46:27.415Z,100.00
2023-02-16T04:48:55.745Z,100.00
2023-02-16T04:51:24.006Z,100.00
2023-02-16T04:53:52.999Z,100.00
2023-02-16T04:56:20.983Z,100.00
2023-02-16T04:58:49.293Z,100.00
2023-02-16T05:01:21.633Z,100.00
2023-02-16T05:03:50.200Z,100.00
2023-02-16T05:06:18.785Z,100.00
2023-02-16T05:08:47.076Z,100.00
2023-02-16T05:11:34.079Z,100.00
2023-02-16T05:14:21.095Z,100.00
2023-02-16T05:16:49.590Z,100.00
2023-02-16T05:19:17.651Z,100.00
2023-02-16T05:21:45.616Z,100.00
2023-02-16T05:24:13.551Z,100.00
2023-02-16T05:26:43.099Z,100.00
2023-02-16T05:29:11.165Z,100.00
2023-02-16T05:31:39.425Z,100.00
2023-02-16T05:34:07.922Z,100.00
2023-02-16T05:36:35.843Z,100.00
2023-02-16T05:39:04.172Z,100.00
2023-02-16T05:41:32.656Z,100.00
2023-02-16T05:44:02.062Z,100.00
2023-02-16T05:46:32.715Z,100.00
2023-02-16T05:49:00.979Z,100.00
2023-02-16T05:51:30.005Z,100.00
2023-02-16T05:53:58.139Z,100.00
2023-02-16T05:56:26.414Z,100.00
2023-02-16T05:58:54.488Z,100.00
2023-02-16T06:01:22.717Z,100.00
2023-02-16T06:03:51.324Z,100.00
2023-02-16T06:06:19.324Z,100.00
2023-02-16T06:08:47.744Z,100.00
2023-02-16T06:11:34.373Z,100.00
2023-02-16T06:14:16.608Z,100.00
2023-02-16T06:16:45.830Z,100.00
2023-02-16T06:19:14.290Z,100.00
2023-02-16T06:21:42.677Z,100.00
2023-02-16T06:24:11.869Z,100.00
2023-02-16T06:26:40.202Z,100.00
2023-02-16T06:29:08.834Z,99.12
2023-02-16T06:31:37.260Z,94.80
2023-02-16T06:34:05.930Z,91.09
2023-02-16T06:36:34.577Z,86.54
2023-02-16T06:39:03.063Z,83.41
2023-02-16T06:41:31.617Z,80.17
2023-02-16T06:44:07.600Z,73.74
2023-02-16T06:46:36.842Z,73.05
2023-02-16T06:49:05.486Z,69.45
2023-02-16T06:51:33.664Z,68.36
2023-02-16T06:54:01.937Z,67.71
2023-02-16T06:56:30.318Z,66.14
2023-02-16T06:58:58.821Z,63.61
2023-02-16T07:01:26.872Z,63.71
2023-02-16T07:03:56.485Z,62.17
2023-02-16T07:06:26.086Z,62.02
2023-02-16T07:08:54.569Z,62.39
2023-02-16T07:11:23.154Z,62.94
2023-02-16T07:13:51.324Z,63.50
2023-02-16T07:16:19.542Z,64.13
2023-02-16T07:18:48.088Z,65.66
2023-02-16T07:21:16.062Z,66.94
2023-02-16T07:23:44.432Z,68.00
2023-02-16T07:26:12.714Z,68.75
2023-02-16T07:28:40.987Z,68.91
2023-02-16T07:31:13.807Z,68.78
2023-02-16T07:33:42.351Z,69.83
2023-02-16T07:36:11.446Z,69.91
2023-02-16T07:38:41.391Z,69.46
2023-02-16T07:41:10.245Z,68.39
2023-02-16T07:43:39.485Z,67.63
2023-02-16T07:46:07.585Z,67.22
2023-02-16T07:48:36.124Z,68.74
2023-02-16T07:51:04.917Z,69.44
2023-02-16T07:53:33.183Z,70.28
2023-02-16T07:56:01.661Z,69.44
2023-02-16T07:58:30.084Z,69.08
2023-02-16T08:01:07.737Z,66.35
2023-02-16T08:03:35.903Z,67.95
2023-02-16T08:06:05.030Z,63.12
2023-02-16T08:08:33.575Z,59.70
2023-02-16T08:11:08.144Z,60.93
2023-02-16T08:13:36.793Z,57.18
2023-02-16T08:16:08.881Z,54.46
2023-02-16T08:18:37.448Z,53.00
2023-02-16T08:21:14.475Z,53.40
2023-02-16T08:24:01.873Z,53.81
2023-02-16T08:26:34.743Z,52.94
2023-02-16T08:29:03.016Z,53.28
2023-02-16T08:31:33.017Z,53.48
2023-02-16T08:34:03.161Z,48.39
2023-02-16T08:36:34.192Z,48.59
2023-02-16T08:39:06.614Z,49.41
2023-02-16T08:41:36.338Z,46.13
2023-02-16T08:44:05.884Z,45.42
2023-02-16T08:46:34.703Z,43.18
2023-02-16T08:49:03.365Z,45.60
2023-02-16T08:51:36.470Z,41.50
2023-02-16T08:54:06.070Z,40.88
2023-02-16T08:56:34.578Z,40.43
2023-02-16T08:59:02.728Z,40.35
2023-02-16T09:01:31.032Z,40.08
2023-02-16T09:03:59.340Z,40.22
2023-02-16T09:06:27.656Z,38.91
2023-02-16T09:08:57.155Z,38.36
2023-02-16T09:11:25.723Z,38.25
2023-02-16T09:13:54.004Z,38.28
2023-02-16T09:16:22.975Z,38.65
2023-02-16T09:18:52.093Z,38.62
2023-02-16T09:21:21.597Z,38.65
2023-02-16T09:23:50.594Z,39.16
2023-02-16T09:26:19.486Z,39.63
2023-02-16T09:28:48.930Z,40.11
2023-02-16T09:31:17.052Z,40.13
2023-02-16T09:33:46.932Z,40.60
2023-02-16T09:36:15.256Z,41.32
2023-02-16T09:38:43.636Z,41.63
2023-02-16T09:41:30.565Z,40.68
2023-02-16T09:44:08.139Z,40.38
2023-02-16T09:46:37.047Z,39.66
2023-02-16T09:49:06.026Z,39.13
2023-02-16T09:51:37.492Z,38.69
2023-02-16T09:54:10.059Z,39.45
2023-02-16T09:56:41.197Z,39.46
2023-02-16T09:59:28.635Z,39.57
2023-02-16T10:02:02.438Z,39.63
2023-02-16T10:04:39.098Z,39.13
2023-02-16T10:07:07.690Z,39.57
2023-02-16T10:09:36.476Z,39.77
2023-02-16T10:12:08.134Z,40.19
2023-02-16T10:14:47.266Z,39.63
2023-02-16T10:17:15.448Z,39.91
2023-02-16T10:19:56.216Z,39.77
2023-02-16T10:22:31.276Z,40.08
2023-02-16T10:25:02.393Z,40.13
2023-02-16T10:27:41.117Z,40.37
2023-02-16T10:30:12.189Z,40.89
2023-02-16T10:32:54.191Z,41.20
2023-02-16T10:35:29.757Z,41.61
2023-02-16T10:37:57.872Z,41.91
2023-02-16T10:40:34.558Z,41.39
2023-02-16T10:43:21.271Z,40.70
2023-02-16T10:45:52.742Z,40.77
2023-02-16T10:48:22.520Z,41.63
2023-02-16T10:51:04.939Z,41.91
2023-02-16T10:53:36.796Z,42.27
2023-02-16T10:56:23.912Z,42.96
2023-02-16T10:58:53.008Z,43.14
2023-02-16T11:01:27.550Z,43.42
2023-02-16T11:03:55.623Z,43.86
2023-02-16T11:06:25.948Z,44.19
2023-02-16T11:09:01.080Z,43.69
2023-02-16T11:11:36.165Z,44.38
2023-02-16T11:14:09.614Z,44.84
2023-02-16T11:16:38.183Z,43.96
2023-02-16T11:19:07.901Z,44.50
2023-02-16T11:21:43.547Z,44.83
2023-02-16T11:24:13.360Z,44.93
2023-02-16T11:26:41.945Z,44.97
2023-02-16T11:29:20.055Z,45.27
2023-02-16T11:31:48.347Z,45.52
2023-02-16T11:34:29.415Z,46.34
2023-02-16T11:37:06.391Z,47.00
2023-02-16T11:39:39.488Z,47.07
2023-02-16T11:42:10.512Z,47.72
2023-02-16T11:44:47.187Z,48.14
2023-02-16T11:47:30.356Z,48.46
2023-02-16T11:50:34.330Z,48.38
2023-02-16T11:53:08.232Z,47.51
2023-02-16T11:55:37.530Z,47.34
2023-02-16T11:58:17.897Z,46.80
2023-02-16T12:01:02.930Z,47.02
2023-02-16T12:03:34.434Z,47.23
2023-02-16T12:06:08.968Z,46.88
2023-02-16T12:08:43.082Z,47.50
2023-02-16T12:11:11.335Z,48.23
2023-02-16T12:13:58.257Z,47.55
2023-02-16T12:16:34.393Z,47.09
2023-02-16T12:19:24.696Z,46.37
2023-02-16T12:22:06.898Z,46.35
2023-02-16T12:24:36.028Z,46.04
2023-02-16T12:27:06.419Z,46.24
2023-02-16T12:29:46.169Z,46.29
2023-02-16T12:32:32.872Z,46.07
2023-02-16T12:35:19.794Z,46.13
2023-02-16T12:37:48.090Z,47.06
2023-02-16T12:40:22.281Z,46.98
2023-02-16T12:42:50.554Z,46.81
2023-02-16T12:45:21.694Z,47.54
2023-02-16T12:47:56.790Z,47.92
2023-02-16T12:50:27.979Z,47.51
2023-02-16T12:53:14.314Z,47.94
2023-02-16T12:55:56.580Z,48.11
2023-02-16T12:58:36.640Z,48.68
2023-02-16T13:01:17.446Z,49.37
2023-02-16T13:04:04.391Z,49.87
2023-02-16T13:06:33.996Z,50.32
2023-02-16T13:09:05.296Z,49.17
2023-02-16T13:11:36.362Z,49.62
2023-02-16T13:14:07.059Z,50.17
2023-02-16T13:16:38.425Z,50.17
2023-02-16T13:19:06.483Z,50.56
2023-02-16T13:24:52.756Z,51.05
2023-02-16T13:25:46.453Z,50.74
2023-02-16T13:27:21.005Z,51.83
2023-02-16T13:30:01.683Z,52.19
2023-02-16T13:32:55.236Z,52.70
2023-02-16T13:35:40.180Z,53.39
2023-02-16T13:38:11.432Z,53.29
2023-02-16T13:40:58.593Z,53.47
2023-02-16T13:43:35.015Z,53.92
2023-02-16T13:46:07.552Z,54.59
2023-02-16T13:48:47.556Z,55.41
2023-02-16T13:51:18.487Z,55.58
2023-02-16T13:53:56.076Z,55.60
2023-02-16T13:56:30.935Z,55.93
2023-02-16T13:59:34.411Z,56.70
2023-02-16T14:02:02.818Z,57.11
2023-02-16T14:04:30.906Z,57.58
2023-02-16T14:07:07.125Z,57.63
2023-02-16T14:09:37.969Z,58.56
2023-02-16T14:12:11.770Z,59.57
2023-02-16T14:14:42.630Z,59.69
2023-02-16T14:17:19.847Z,59.85
2023-02-16T14:20:06.869Z,59.75
2023-02-16T14:22:39.487Z,60.21
2023-02-16T14:25:20.050Z,60.29
2023-02-16T14:27:49.967Z,60.36
2023-02-16T14:30:29.101Z,60.70
2023-02-16T14:33:12.841Z,61.17
2023-02-16T14:35:42.056Z,61.25
2023-02-16T14:38:16.357Z,61.28
2023-02-16T14:41:01.015Z,61.42
2023-02-16T14:43:40.494Z,62.68
2023-02-16T14:46:08.577Z,63.22
2023-02-16T14:48:36.698Z,63.77
2023-02-16T14:51:17.675Z,64.26
2023-02-16T14:54:02.742Z,65.34
2023-02-16T14:56:37.731Z,65.57
2023-02-16T14:59:12.459Z,65.06
2023-02-16T15:01:44.707Z,65.43
2023-02-16T15:04:12.952Z,67.50
2023-02-16T15:06:46.972Z,67.98
2023-02-16T15:09:17.085Z,68.23
2023-02-16T15:12:11.573Z,69.29
2023-02-16T15:14:48.089Z,69.19
2023-02-16T15:17:25.533Z,68.05
2023-02-16T15:19:55.347Z,68.59
2023-02-16T15:22:25.574Z,69.12
2023-02-16T15:25:01.801Z,69.46
2023-02-16T15:27:30.011Z,68.97
2023-02-16T15:30:04.986Z,68.81
2023-02-16T15:32:33.523Z,70.19
2023-02-16T15:35:12.554Z,71.72
2023-02-16T15:37:40.675Z,72.71
2023-02-16T15:40:27.788Z,72.77
2023-02-16T15:42:59.194Z,72.48
2023-02-16T15:45:29.316Z,72.85
2023-02-16T15:48:13.568Z,75.17
2023-02-16T15:50:42.882Z,73.88
2023-02-16T15:53:12.576Z,74.50
2023-02-16T15:55:47.448Z,74.21
2023-02-16T15:58:15.788Z,74.61
2023-02-16T16:00:45.215Z,74.05
2023-02-16T16:03:17.678Z,75.90
2023-02-16T16:06:06.971Z,76.51
2023-02-16T16:08:35.929Z,77.03
2023-02-16T16:11:04.499Z,76.95
2023-02-16T16:13:33.035Z,77.27
2023-02-16T16:16:07.141Z,77.91
2023-02-16T16:18:37.733Z,77.17
2023-02-16T16:21:37.120Z,77.89
2023-02-16T16:24:06.653Z,78.84
2023-02-16T16:26:36.219Z,78.36
2023-02-16T16:29:04.326Z,80.86
2023-02-16T16:31:34.034Z,79.53
2023-02-16T16:34:07.267Z,81.39
2023-02-16T16:36:53.732Z,81.38
2023-02-16T16:39:23.829Z,79.90
2023-02-16T16:41:57.988Z,79.79
2023-02-16T16:44:39.975Z,78.85
2023-02-16T16:47:26.285Z,80.03
2023-02-16T16:49:56.698Z,79.72
2023-02-16T16:52:39.408Z,80.19
2023-02-16T16:55:19.978Z,80.60
2023-02-16T16:57:49.386Z,81.60
2023-02-16T17:00:18.271Z,81.62
2023-02-16T17:02:46.444Z,82.55
2023-02-16T17:05:14.618Z,84.62
2023-02-16T17:07:43.094Z,83.75
2023-02-16T17:10:11.174Z,84.62
2023-02-16T17:12:39.403Z,86.04
2023-02-16T17:15:09.041Z,86.53
2023-02-16T17:17:38.659Z,86.17
2023-02-16T17:20:13.555Z,88.01
2023-02-16T17:22:41.637Z,86.89
2023-02-16T17:25:09.838Z,86.71
2023-02-16T17:27:38.219Z,87.20
2023-02-16T17:30:06.724Z,86.67
2023-02-16T17:32:35.332Z,86.69
2023-02-16T17:35:04.350Z,85.45
2023-02-16T17:37:33.096Z,85.07
2023-02-16T17:40:01.858Z,84.82
2023-02-16T17:42:30.142Z,84.15
2023-02-16T17:44:58.305Z,84.50
2023-02-16T17:47:26.685Z,85.21
2023-02-16T17:49:55.376Z,86.56
2023-02-16T17:52:25.404Z,87.05
2023-02-16T17:54:53.766Z,87.30
2023-02-16T17:57:21.740Z,88.11
2023-02-16T17:59:49.814Z,86.33
2023-02-16T18:02:18.189Z,87.32
2023-02-16T18:04:46.464Z,88.72
2023-02-16T18:07:15.695Z,89.93
2023-02-16T18:09:44.246Z,89.66
2023-02-16T18:12:13.035Z,90.36
2023-02-16T18:14:41.209Z,91.48
2023-02-16T18:17:12.560Z,91.31
2023-02-16T18:19:40.628Z,90.69
2023-02-16T18:22:08.813Z,90.11
2023-02-16T18:24:36.829Z,89.26
2023-02-16T18:27:05.479Z,89.34
2023-02-16T18:29:33.636Z,89.24
2023-02-16T18:32:03.296Z,89.39
2023-02-16T18:34:32.898Z,89.21
2023-02-16T18:37:01.370Z,89.74
2023-02-16T18:39:29.455Z,90.12
2023-02-16T18:41:57.555Z,90.37
2023-02-16T18:44:25.840Z,89.87
2023-02-16T18:46:54.091Z,89.67
2023-02-16T18:49:22.039Z,89.07
2023-02-16T18:51:50.129Z,89.38
2023-02-16T18:54:18.468Z,89.05
2023-02-16T18:56:47.688Z,89.11
2023-02-16T18:59:15.839Z,88.69
2023-02-16T19:01:44.738Z,87.84
2023-02-16T19:04:13.032Z,88.30
2023-02-16T19:06:41.177Z,88.62
2023-02-16T19:09:09.252Z,91.36
2023-02-16T19:11:37.532Z,91.13
2023-02-16T19:14:07.074Z,90.50
2023-02-16T19:16:35.611Z,91.53
2023-02-16T19:19:03.784Z,92.35
2023-02-16T19:21:32.059Z,92.64
2023-02-16T19:24:00.077Z,92.69
2023-02-16T19:26:28.408Z,92.27
2023-02-16T19:28:56.789Z,92.61
2023-02-16T19:31:29.669Z,94.31
2023-02-16T19:33:59.390Z,96.87
2023-02-16T19:36:30.058Z,96.69
2023-02-16T19:38:58.704Z,96.01
2023-02-16T19:41:28.411Z,95.20
2023-02-16T19:43:59.637Z,95.54
2023-02-16T19:46:28.313Z,94.66
2023-02-16T19:48:57.741Z,95.18
2023-02-16T19:51:26.530Z,95.09
2023-02-16T19:53:54.603Z,95.41
